createdAt,value
2023-03-16T00:00:44.995Z,95851
2023-03-16T00:01:47.518Z,95852
2023-03-16T00:02:50.054Z,95853.8
2023-03-16T00:03:52.654Z,95852.1
2023-03-16T00:04:54.646Z,95849.4
2023-03-16T00:05:57.202Z,95848.3
2023-03-16T00:06:59.786Z,95848.5
2023-03-16T00:08:01.751Z,95844.6
2023-03-16T00:09:04.266Z,95846.4
2023-03-16T00:10:06.221Z,95847.4
2023-03-16T00:11:08.547Z,95842.9
2023-03-16T00:12:11.100Z,95840.3
2023-03-16T00:13:13.305Z,95844.3
2023-03-16T00:14:15.892Z,95838.9
2023-03-16T00:15:17.854Z,95841.5
2023-03-16T00:16:20.640Z,95834
2023-03-16T00:17:22.951Z,95832.8
2023-03-16T00:18:25.440Z,95833.7
2023-03-16T00:19:27.718Z,95830.9
2023-03-16T00:20:30.773Z,95831.2
2023-03-16T00:21:32.982Z,95834.5
2023-03-16T00:22:34.947Z,95835.7
2023-03-16T00:23:37.177Z,95839.5
2023-03-16T00:24:39.748Z,95843.1
2023-03-16T00:25:41.711Z,95845.5
2023-03-16T00:26:44.290Z,95845.8
2023-03-16T00:27:46.806Z,95845.7
2023-03-16T00:28:48.768Z,95843.3
2023-03-16T00:29:50.735Z,95845.7
2023-03-16T00:30:53.284Z,95843.8
2023-03-16T00:31:55.691Z,95839.7
2023-03-16T00:32:57.946Z,95835
2023-03-16T00:34:00.518Z,95839.4
2023-03-16T00:35:03.047Z,95836.9
2023-03-16T00:36:05.499Z,95834.6
2023-03-16T00:37:08.003Z,95830.6
2023-03-16T00:38:10.433Z,95831.4
2023-03-16T00:39:12.992Z,95832.8
2023-03-16T00:40:15.617Z,95830.7
2023-03-16T00:41:18.129Z,95838.2
2023-03-16T00:42:20.500Z,95833
2023-03-16T00:43:22.738Z,95832.9
2023-03-16T00:44:24.985Z,95833.6
2023-03-16T00:45:27.211Z,95832.8
2023-03-16T00:46:29.440Z,95836.2
2023-03-16T00:47:31.728Z,95833.7
2023-03-16T00:48:34.221Z,95834.1
2023-03-16T00:49:36.718Z,95834.9
2023-03-16T00:50:39.259Z,95841.6
2023-03-16T00:51:41.476Z,95836.4
2023-03-16T00:52:43.753Z,95838.9
2023-03-16T00:53:46.046Z,95836.7
2023-03-16T00:54:48.630Z,95835.6
2023-03-16T00:55:51.150Z,95836.6
2023-03-16T00:56:53.649Z,95835.3
2023-03-16T00:57:56.217Z,95831.1
2023-03-16T00:58:58.983Z,95832
2023-03-16T01:00:01.543Z,95827.6
2023-03-16T01:01:04.059Z,95827.4
2023-03-16T01:02:06.370Z,95826.7
2023-03-16T01:03:08.993Z,95825
2023-03-16T01:04:11.547Z,95824.2
2023-03-16T01:05:14.048Z,95821.4
2023-03-16T01:06:16.557Z,95819
2023-03-16T01:07:19.051Z,95821
2023-03-16T01:08:21.013Z,95824
2023-03-16T01:09:23.238Z,95826.4
2023-03-16T01:10:26.254Z,95823.9
2023-03-16T01:11:29.470Z,95821
2023-03-16T01:12:31.374Z,95817.3
2023-03-16T01:13:33.681Z,95818.9
2023-03-16T01:14:36.263Z,95823.9
2023-03-16T01:15:38.232Z,95825.5
2023-03-16T01:16:40.666Z,95822.3
2023-03-16T01:17:43.306Z,95825.9
2023-03-16T01:18:45.531Z,95829.7
2023-03-16T01:19:47.897Z,95825
2023-03-16T01:20:49.968Z,95826
2023-03-16T01:21:52.191Z,95822.5
2023-03-16T01:22:54.704Z,95827.9
2023-03-16T01:23:56.914Z,95824.7
2023-03-16T01:24:58.889Z,95827.2
2023-03-16T01:26:01.227Z,95823.2
2023-03-16T01:27:03.769Z,95821.8
2023-03-16T01:28:06.009Z,95824.7
2023-03-16T01:29:08.336Z,95818.5
2023-03-16T01:30:10.847Z,95823.1
2023-03-16T01:31:13.170Z,95826.8
2023-03-16T01:32:15.486Z,95825.6
2023-03-16T01:33:17.729Z,95823.3
2023-03-16T01:34:20.272Z,95825.3
2023-03-16T01:35:22.883Z,95826.7
2023-03-16T01:36:25.134Z,95825.2
2023-03-16T01:37:27.375Z,95821.2
2023-03-16T01:38:29.321Z,95818
2023-03-16T01:39:31.820Z,95818.1
2023-03-16T01:40:34.317Z,95815.9
2023-03-16T01:41:36.819Z,95823.4
2023-03-16T01:42:38.793Z,95815.7
2023-03-16T01:43:41.318Z,95814.7
2023-03-16T01:44:43.879Z,95813.1
2023-03-16T01:45:46.292Z,95814.3
2023-03-16T01:46:48.864Z,95809.5
2023-03-16T01:47:51.364Z,95812.1
2023-03-16T01:48:53.855Z,95810.5
2023-03-16T01:49:56.098Z,95809.8
2023-03-16T01:50:58.062Z,95808.7
2023-03-16T01:52:00.594Z,95812.3
2023-03-16T01:53:03.125Z,95812.9
2023-03-16T01:54:05.052Z,95808.2
2023-03-16T01:55:07.301Z,95806.5
2023-03-16T01:56:08.997Z,95807.2
2023-03-16T01:57:11.516Z,95806
2023-03-16T01:58:13.750Z,95807.2
2023-03-16T01:59:16.239Z,95809.5
2023-03-16T02:00:18.826Z,95803.7
2023-03-16T02:01:21.593Z,95802.2
2023-03-16T02:02:24.171Z,95810.2
2023-03-16T02:03:26.708Z,95804.5
2023-03-16T02:04:30.064Z,95802.8
2023-03-16T02:05:32.674Z,95805.8
2023-03-16T02:06:35.196Z,95806.4
2023-03-16T02:07:37.684Z,95804.2
2023-03-16T02:08:40.252Z,95805.4
2023-03-16T02:09:42.842Z,95803.5
2023-03-16T02:10:45.058Z,95801.9
2023-03-16T02:11:47.279Z,95797
2023-03-16T02:12:49.500Z,95800.6
2023-03-16T02:13:52.059Z,95802.1
2023-03-16T02:14:54.311Z,95800.1
2023-03-16T02:15:57.237Z,95803.4
2023-03-16T02:16:59.783Z,95804.8
2023-03-16T02:18:02.333Z,95803.8
2023-03-16T02:19:04.840Z,95804
2023-03-16T02:20:06.773Z,95809.1
2023-03-16T02:21:09.339Z,95805.9
2023-03-16T02:22:11.829Z,95806.6
2023-03-16T02:23:14.027Z,95810.6
2023-03-16T02:24:16.233Z,95810.8
2023-03-16T02:25:18.447Z,95806.1
2023-03-16T02:26:20.954Z,95805
2023-03-16T02:27:22.941Z,95808.8
2023-03-16T02:28:25.162Z,95809.7
2023-03-16T02:29:27.396Z,95805.7
2023-03-16T02:30:31.072Z,95803.2
2023-03-16T02:31:33.984Z,95801.5
2023-03-16T02:32:36.662Z,95802.2
2023-03-16T02:33:38.988Z,95802.2
2023-03-16T02:34:41.184Z,95802
2023-03-16T02:35:43.901Z,95806.5
2023-03-16T02:36:46.203Z,95804.8
2023-03-16T02:37:48.711Z,95803.9
2023-03-16T02:38:50.637Z,95805.6
2023-03-16T02:39:52.570Z,95802.6
2023-03-16T02:40:54.808Z,95801
2023-03-16T02:41:57.367Z,95801.4
2023-03-16T02:42:59.317Z,95808.5
2023-03-16T02:44:01.268Z,95808.1
2023-03-16T02:45:03.922Z,95805.4
2023-03-16T02:46:06.925Z,95801.3
2023-03-16T02:47:09.293Z,95798.5
2023-03-16T02:48:11.529Z,95805.1
2023-03-16T02:49:14.032Z,95802.7
2023-03-16T02:50:16.030Z,95802
2023-03-16T02:51:18.257Z,95802.4
2023-03-16T02:52:20.490Z,95799.9
2023-03-16T02:53:23.006Z,95797.9
2023-03-16T02:54:25.509Z,95801.6
2023-03-16T02:55:28.018Z,95800.1
2023-03-16T02:56:30.255Z,95799.5
2023-03-16T02:57:32.534Z,95802.2
2023-03-16T02:58:35.136Z,95795.9
2023-03-16T02:59:37.642Z,95797.4
2023-03-16T03:00:39.928Z,95799.8
2023-03-16T03:01:42.469Z,95800.8
2023-03-16T03:02:45.241Z,95800.8
2023-03-16T03:03:47.877Z,95799.1
2023-03-16T03:04:50.097Z,95796.7
2023-03-16T03:05:52.628Z,95796.8
2023-03-16T03:06:54.586Z,95798
2023-03-16T03:07:57.145Z,95794.1
2023-03-16T03:08:59.646Z,95793.5
2023-03-16T03:10:01.893Z,95792.9
2023-03-16T03:11:04.093Z,95791.2
2023-03-16T03:12:06.399Z,95791
2023-03-16T03:13:08.699Z,95794.5
2023-03-16T03:14:11.211Z,95795.2
2023-03-16T03:15:13.444Z,95794.8
2023-03-16T03:16:16.377Z,95790.6
2023-03-16T03:17:18.730Z,95787.8
2023-03-16T03:18:21.031Z,95788
2023-03-16T03:19:23.028Z,95789.3
2023-03-16T03:20:25.271Z,95788.3
2023-03-16T03:21:27.542Z,95789.5
2023-03-16T03:22:30.072Z,95790
2023-03-16T03:23:32.573Z,95786.6
2023-03-16T03:24:35.093Z,95790.9
2023-03-16T03:25:37.624Z,95788.9
2023-03-16T03:26:40.161Z,95788.8
2023-03-16T03:27:42.596Z,95787.1
2023-03-16T03:28:44.940Z,95786.5
2023-03-16T03:29:47.148Z,95786.5
2023-03-16T03:30:49.082Z,95785.9
2023-03-16T03:31:51.883Z,95785.1
2023-03-16T03:32:54.471Z,95783.7
2023-03-16T03:33:57.326Z,95785.5
2023-03-16T03:34:59.895Z,95788.8
2023-03-16T03:36:02.629Z,95786.1
2023-03-16T03:37:05.089Z,95788.6
2023-03-16T03:38:07.334Z,95787.9
2023-03-16T03:39:09.896Z,95789.9
2023-03-16T03:40:12.134Z,95785.7
2023-03-16T03:41:14.658Z,95787.4
2023-03-16T03:42:17.162Z,95791.3
2023-03-16T03:43:19.676Z,95791.6
2023-03-16T03:44:21.899Z,95794
2023-03-16T03:45:24.125Z,95789.6
2023-03-16T03:46:26.947Z,95788.5
2023-03-16T03:47:29.453Z,95793.4
2023-03-16T03:48:31.369Z,95786.8
2023-03-16T03:49:33.748Z,95789.3
2023-03-16T03:50:36.266Z,95787.4
2023-03-16T03:51:38.486Z,95784.8
2023-03-16T03:52:40.469Z,95783.7
2023-03-16T03:53:42.686Z,95785.5
2023-03-16T03:54:45.213Z,95783.2
2023-03-16T03:55:47.731Z,95781.5
2023-03-16T03:56:50.215Z,95787.6
2023-03-16T03:57:52.425Z,95786
2023-03-16T03:58:54.957Z,95783.1
2023-03-16T03:59:57.513Z,95786.2
2023-03-16T04:00:59.763Z,95782.2
2023-03-16T04:02:02.701Z,95783
2023-03-16T04:03:06.119Z,95780.7
2023-03-16T04:04:09.011Z,95782.1
2023-03-16T04:05:11.331Z,95777.9
2023-03-16T04:06:13.598Z,95776.7
2023-03-16T04:07:16.132Z,95772.5
2023-03-16T04:08:18.077Z,95776.2
2023-03-16T04:09:20.572Z,95778.2
2023-03-16T04:10:23.061Z,95775.9
2023-03-16T04:11:25.297Z,95776.1
2023-03-16T04:12:27.524Z,95775.3
2023-03-16T04:13:29.741Z,95776
2023-03-16T04:14:32.261Z,95777.7
2023-03-16T04:15:34.599Z,95776
2023-03-16T04:16:37.414Z,95776.7
2023-03-16T04:17:40.120Z,95778.2
2023-03-16T04:18:42.087Z,95776.4
2023-03-16T04:19:44.583Z,95774.5
2023-03-16T04:20:47.169Z,95776.2
2023-03-16T04:21:49.708Z,95775.6
2023-03-16T04:22:52.067Z,95774.6
2023-03-16T04:23:54.124Z,95779
2023-03-16T04:24:56.441Z,95787.6
2023-03-16T04:25:58.429Z,95786.9
2023-03-16T04:27:00.702Z,95787.9
2023-03-16T04:28:02.925Z,95787.1
2023-03-16T04:29:05.124Z,95787.7
2023-03-16T04:30:07.470Z,95788.2
2023-03-16T04:31:09.674Z,95788.7
2023-03-16T04:32:12.224Z,95791.5
2023-03-16T04:33:14.799Z,95797.6
2023-03-16T04:34:17.464Z,95794.8
2023-03-16T04:35:20.072Z,95796
2023-03-16T04:36:22.664Z,95793.9
2023-03-16T04:37:25.037Z,95797.2
2023-03-16T04:38:27.545Z,95791.3
2023-03-16T04:39:29.759Z,95789.8
2023-03-16T04:40:32.276Z,95786.8
2023-03-16T04:41:34.255Z,95788.2
2023-03-16T04:42:36.771Z,95788.5
2023-03-16T04:43:39.047Z,95790.3
2023-03-16T04:44:41.000Z,95783
2023-03-16T04:45:43.262Z,95782.5
2023-03-16T04:46:45.909Z,95780
2023-03-16T04:47:48.495Z,95779.6
2023-03-16T04:48:50.994Z,95774.1
2023-03-16T04:49:53.517Z,95773.1
2023-03-16T04:50:55.467Z,95770
2023-03-16T04:51:58.049Z,95767.1
2023-03-16T04:53:00.601Z,95768.7
2023-03-16T04:54:02.591Z,95769.7
2023-03-16T04:55:04.874Z,95771.1
2023-03-16T04:56:07.409Z,95772.8
2023-03-16T04:57:09.666Z,95769.5
2023-03-16T04:58:11.900Z,95775.5
2023-03-16T04:59:14.394Z,95776
2023-03-16T05:00:16.924Z,95775.5
2023-03-16T05:01:19.756Z,95777.8
2023-03-16T05:02:22.329Z,95773.2
2023-03-16T05:03:24.566Z,95768.6
2023-03-16T05:04:27.095Z,95769
2023-03-16T05:05:29.554Z,95769.7
2023-03-16T05:06:31.569Z,95765.7
2023-03-16T05:07:33.994Z,95761
2023-03-16T05:08:36.529Z,95757.9
2023-03-16T05:09:39.224Z,95759.6
2023-03-16T05:10:41.730Z,95749.5
2023-03-16T05:11:44.255Z,95746.9
2023-03-16T05:12:46.761Z,95750.6
2023-03-16T05:13:48.986Z,95750.4
2023-03-16T05:14:51.476Z,95753.5
2023-03-16T05:15:53.548Z,95747.3
2023-03-16T05:16:55.966Z,95745.3
2023-03-16T05:17:58.194Z,95746.5
2023-03-16T05:19:00.166Z,95741.3
2023-03-16T05:20:02.696Z,95743.2
2023-03-16T05:21:05.223Z,95744
2023-03-16T05:22:07.433Z,95746.1
2023-03-16T05:23:09.756Z,95742.3
2023-03-16T05:24:12.051Z,95743.4
2023-03-16T05:25:14.532Z,95742.8
2023-03-16T05:26:16.793Z,95745.7
2023-03-16T05:27:19.368Z,95744.1
2023-03-16T05:28:21.578Z,95745.2
2023-03-16T05:29:23.857Z,95744.2
2023-03-16T05:30:26.873Z,95748.5
2023-03-16T05:31:29.836Z,95750
2023-03-16T05:32:32.123Z,95748.5
2023-03-16T05:33:34.463Z,95744
2023-03-16T05:34:36.992Z,95751.6
2023-03-16T05:35:39.412Z,95751.6
2023-03-16T05:36:41.464Z,95747.2
2023-03-16T05:37:44.291Z,95749.1
2023-03-16T05:38:46.880Z,95750.8
2023-03-16T05:39:49.395Z,95746
2023-03-16T05:40:51.896Z,95747.1
2023-03-16T05:41:53.851Z,95745.7
2023-03-16T05:42:56.086Z,95745.5
2023-03-16T05:43:58.585Z,95749
2023-03-16T05:45:00.885Z,95743.4
2023-03-16T05:46:02.886Z,95738.6
2023-03-16T05:47:05.809Z,95744
2023-03-16T05:48:08.495Z,95738.4
2023-03-16T05:49:11.006Z,95741.5
2023-03-16T05:50:13.293Z,95738.9
2023-03-16T05:51:15.557Z,95742.2
2023-03-16T05:52:18.202Z,95742.3
2023-03-16T05:53:20.509Z,95742.3
2023-03-16T05:54:23.087Z,95740.8
2023-03-16T05:55:25.628Z,95741.6
2023-03-16T05:56:28.172Z,95742.2
2023-03-16T05:57:30.416Z,95745.7
2023-03-16T05:58:32.942Z,95747.4
2023-03-16T05:59:35.500Z,95749.7
2023-03-16T06:00:37.787Z,95750
2023-03-16T06:01:40.290Z,95748.7
2023-03-16T06:02:43.123Z,95746.9
2023-03-16T06:03:45.721Z,95749.7
2023-03-16T06:04:47.720Z,95745.9
2023-03-16T06:05:49.638Z,95742.7
2023-03-16T06:06:52.176Z,95740.3
2023-03-16T06:07:54.738Z,95739
2023-03-16T06:08:56.961Z,95741.4
2023-03-16T06:09:59.531Z,95745.1
2023-03-16T06:11:01.808Z,95742.8
2023-03-16T06:12:04.317Z,95742.8
2023-03-16T06:13:06.815Z,95750.1
2023-03-16T06:14:09.366Z,95754
2023-03-16T06:15:11.917Z,95749.7
2023-03-16T06:16:14.555Z,95757.1
2023-03-16T06:17:16.876Z,95756.2
2023-03-16T06:18:18.542Z,95756.1
2023-03-16T06:19:20.801Z,95757.1
2023-03-16T06:20:23.318Z,95753.9
2023-03-16T06:21:26.011Z,95746.4
2023-03-16T06:22:28.231Z,95753.3
2023-03-16T06:23:30.181Z,95755.3
2023-03-16T06:24:32.399Z,95757
2023-03-16T06:25:34.990Z,95755.3
2023-03-16T06:26:37.295Z,95749.6
2023-03-16T06:27:39.867Z,95755.2
2023-03-16T06:28:42.455Z,95759.2
2023-03-16T06:29:45.028Z,95758.9
2023-03-16T06:30:47.561Z,95757.5
2023-03-16T06:31:49.768Z,95760.8
2023-03-16T06:32:52.422Z,95762.4
2023-03-16T06:33:54.862Z,95762.9
2023-03-16T06:34:57.122Z,95765
2023-03-16T06:36:00.009Z,95762.7
2023-03-16T06:37:02.415Z,95764.4
2023-03-16T06:38:04.355Z,95767.1
2023-03-16T06:39:06.645Z,95768
2023-03-16T06:40:09.159Z,95764.6
2023-03-16T06:41:11.850Z,95762.1
2023-03-16T06:42:14.366Z,95761.8
2023-03-16T06:43:16.589Z,95756.3
2023-03-16T06:44:19.101Z,95760.1
2023-03-16T06:45:21.647Z,95759.6
2023-03-16T06:46:24.560Z,95759.2
2023-03-16T06:47:27.189Z,95763.5
2023-03-16T06:48:29.512Z,95760.2
2023-03-16T06:49:31.782Z,95762
2023-03-16T06:50:34.009Z,95764.6
2023-03-16T06:51:36.252Z,95762.2
2023-03-16T06:52:38.770Z,95766.5
2023-03-16T06:53:41.023Z,95763.5
2023-03-16T06:54:43.686Z,95763
2023-03-16T06:55:46.190Z,95758.3
2023-03-16T06:56:48.779Z,95760.1
2023-03-16T06:57:51.352Z,95756.5
2023-03-16T06:58:53.586Z,95756.4
2023-03-16T06:59:56.130Z,95764.4
2023-03-16T07:00:58.570Z,95766.1
2023-03-16T07:02:01.192Z,95765.6
2023-03-16T07:03:03.806Z,95767.9
2023-03-16T07:04:06.098Z,95759.5
2023-03-16T07:05:08.685Z,95758.6
2023-03-16T07:06:11.220Z,95758.4
2023-03-16T07:07:13.146Z,95756.4
2023-03-16T07:08:15.384Z,95758.6
2023-03-16T07:09:17.657Z,95754.3
2023-03-16T07:10:19.904Z,95752.4
2023-03-16T07:11:22.406Z,95754.5
2023-03-16T07:12:24.755Z,95756.1
2023-03-16T07:13:27.313Z,95756.4
2023-03-16T07:14:29.536Z,95751.8
2023-03-16T07:15:32.047Z,95753
2023-03-16T07:16:34.363Z,95755.7
2023-03-16T07:17:36.699Z,95754.8
2023-03-16T07:18:38.958Z,95752
2023-03-16T07:19:41.535Z,95756.3
2023-03-16T07:20:44.086Z,95753
2023-03-16T07:21:46.395Z,95753
2023-03-16T07:22:48.899Z,95750.5
2023-03-16T07:23:51.388Z,95753.4
2023-03-16T07:24:53.906Z,95759.3
2023-03-16T07:25:56.219Z,95754.8
2023-03-16T07:26:58.471Z,95760.1
2023-03-16T07:28:01.090Z,95760.5
2023-03-16T07:29:03.416Z,95758.5
2023-03-16T07:30:05.947Z,95758.9
2023-03-16T07:31:08.454Z,95756.3
2023-03-16T07:32:10.693Z,95751.6
2023-03-16T07:33:13.537Z,95756.1
2023-03-16T07:34:16.041Z,95757.3
2023-03-16T07:35:18.354Z,95761.3
2023-03-16T07:36:20.821Z,95764.5
2023-03-16T07:38:28.408Z,95764.2
2023-03-16T07:39:30.907Z,95767.7
2023-03-16T07:40:33.469Z,95769.4
2023-03-16T07:41:35.822Z,95769.6
2023-03-16T07:42:38.362Z,95766.5
2023-03-16T07:43:40.946Z,95767.2
2023-03-16T07:44:43.505Z,95769.5
2023-03-16T07:45:46.114Z,95769.2
2023-03-16T07:46:48.472Z,95766.5
2023-03-16T07:47:50.981Z,95773.6
2023-03-16T07:48:53.213Z,95770.9
2023-03-16T07:49:55.193Z,95772.5
2023-03-16T07:50:57.696Z,95772.1
2023-03-16T07:52:00.185Z,95769.5
2023-03-16T07:53:02.416Z,95772.7
2023-03-16T07:54:05.056Z,95773.4
2023-03-16T07:55:07.057Z,95780.7
2023-03-16T07:56:09.412Z,95781.2
2023-03-16T07:57:12.088Z,95783.1
2023-03-16T07:58:14.334Z,95782.4
2023-03-16T07:59:17.938Z,95781.5
2023-03-16T08:00:23.003Z,95778.4
2023-03-16T08:01:25.217Z,95777.5
2023-03-16T08:02:27.812Z,95781
2023-03-16T08:03:30.801Z,95783.3
2023-03-16T08:04:33.179Z,95783.8
2023-03-16T08:05:35.216Z,95786.9
2023-03-16T08:06:37.721Z,95787.2
2023-03-16T08:07:39.987Z,95783.6
2023-03-16T08:08:42.506Z,95783
2023-03-16T08:09:44.554Z,95783.6
2023-03-16T08:10:46.793Z,95781.6
2023-03-16T08:11:49.323Z,95781.1
2023-03-16T08:12:51.784Z,95783.6
2023-03-16T08:13:54.398Z,95782.9
2023-03-16T08:14:57.022Z,95790.7
2023-03-16T08:16:00.076Z,95790.6
2023-03-16T08:17:02.489Z,95794
2023-03-16T08:18:05.026Z,95788.3
2023-03-16T08:19:07.379Z,95790.9
2023-03-16T08:20:09.326Z,95790.7
2023-03-16T08:21:10.981Z,95789.4
2023-03-16T08:22:12.984Z,95793.3
2023-03-16T08:23:14.669Z,95797.4
2023-03-16T08:24:16.917Z,95797.2
2023-03-16T08:25:19.458Z,95793.6
2023-03-16T08:26:21.860Z,95800.4
2023-03-16T08:27:23.842Z,95798.7
2023-03-16T08:28:26.753Z,95803.5
2023-03-16T08:29:28.727Z,95802.7
2023-03-16T08:30:33.017Z,95798.5
2023-03-16T08:31:35.244Z,95803.8
2023-03-16T08:32:38.295Z,95803.5
2023-03-16T08:33:40.668Z,95804.4
2023-03-16T08:34:42.598Z,95803.5
2023-03-16T08:35:45.337Z,95801.5
2023-03-16T08:36:47.989Z,95798.9
2023-03-16T08:37:50.264Z,95801.3
2023-03-16T08:39:57.768Z,95796.1
2023-03-16T08:41:00.012Z,95799.9
2023-03-16T08:42:02.554Z,95794.6
2023-03-16T08:43:04.837Z,95793.2
2023-03-16T08:44:07.386Z,95792.4
2023-03-16T08:45:13.542Z,95794.6
2023-03-16T08:46:17.283Z,95792.7
2023-03-16T08:47:19.681Z,95790.2
2023-03-16T08:48:21.667Z,95793.9
2023-03-16T08:49:23.628Z,95793.9
2023-03-16T08:50:26.880Z,95794
2023-03-16T08:51:30.154Z,95796
2023-03-16T08:52:32.706Z,95796
2023-03-16T08:53:34.953Z,95799.1
2023-03-16T08:54:37.200Z,95796.8
2023-03-16T08:55:39.447Z,95790.9
2023-03-16T08:56:41.187Z,95792.6
2023-03-16T08:57:42.868Z,95796.7
2023-03-16T08:58:45.383Z,95793.3
2023-03-16T08:59:47.959Z,95789.6
2023-03-16T09:00:52.140Z,95791.5
2023-03-16T09:01:54.464Z,95783.9
2023-03-16T09:02:57.125Z,95782.2
2023-03-16T09:03:59.504Z,95783
2023-03-16T09:05:02.324Z,95786
2023-03-16T09:06:04.845Z,95786.5
2023-03-16T09:08:12.345Z,95787
2023-03-16T09:09:14.589Z,95783.9
2023-03-16T09:11:22.579Z,95787.5
2023-03-16T09:12:24.501Z,95776.9
2023-03-16T09:13:26.751Z,95779.4
2023-03-16T09:14:29.094Z,95782.6
2023-03-16T09:15:31.688Z,95778.1
2023-03-16T09:16:34.509Z,95777.4
2023-03-16T09:17:37.216Z,95777.1
2023-03-16T09:18:39.550Z,95775.8
2023-03-16T09:20:46.808Z,95783.6
2023-03-16T09:21:49.407Z,95785.3
2023-03-16T09:22:51.902Z,95780.8
2023-03-16T09:23:54.741Z,95785.5
2023-03-16T09:24:57.247Z,95774.9
2023-03-16T09:25:58.932Z,95783.7
2023-03-16T09:27:01.782Z,95778.4
2023-03-16T09:28:04.531Z,95779.5
2023-03-16T09:29:07.107Z,95780.5
2023-03-16T09:30:09.621Z,95779.3
2023-03-16T09:31:12.288Z,95778.2
2023-03-16T09:32:15.398Z,95781.5
2023-03-16T09:33:17.760Z,95780.8
2023-03-16T09:34:20.297Z,95777.6
2023-03-16T09:35:22.556Z,95776.9
2023-03-16T09:36:24.864Z,95782.6
2023-03-16T09:37:35.572Z,95780.2
2023-03-16T09:38:35.949Z,95786
2023-03-16T09:39:38.533Z,95785.2
2023-03-16T09:40:41.069Z,95784.4
2023-03-16T09:41:43.585Z,95787.2
2023-03-16T09:42:45.813Z,95788.3
2023-03-16T09:43:48.109Z,95787.2
2023-03-16T09:44:50.678Z,95784.5
2023-03-16T09:45:53.372Z,95783.1
2023-03-16T09:46:55.996Z,95784.4
2023-03-16T09:47:58.236Z,95783.1
2023-03-16T09:49:00.840Z,95784.9
2023-03-16T09:50:03.440Z,95786.1
2023-03-16T09:51:05.974Z,95784.5
2023-03-16T09:52:08.704Z,95785.8
2023-03-16T09:53:11.266Z,95782.1
2023-03-16T09:54:13.539Z,95784.9
2023-03-16T09:55:15.802Z,95780.7
2023-03-16T09:56:18.314Z,95786.1
2023-03-16T09:57:20.603Z,95781.8
2023-03-16T09:58:23.136Z,95783.6
2023-03-16T09:59:25.675Z,95780.7
2023-03-16T10:00:29.327Z,95779.9
2023-03-16T10:01:32.608Z,95776.9
2023-03-16T10:02:35.299Z,95778
2023-03-16T10:03:38.198Z,95773.2
2023-03-16T10:04:40.881Z,95772.5
2023-03-16T10:06:47.089Z,95777.7
2023-03-16T10:08:21.130Z,95773.7
2023-03-16T10:10:27.671Z,95777.1
2023-03-16T10:12:02.131Z,95770.4
2023-03-16T10:14:08.033Z,95768.9
2023-03-16T10:15:29.471Z,95767.8
2023-03-16T10:16:32.415Z,95763.4
2023-03-16T10:17:34.740Z,95768.6
2023-03-16T10:18:37.025Z,95763.6
2023-03-16T10:19:39.553Z,95766.5
2023-03-16T10:20:42.151Z,95768
2023-03-16T10:21:44.787Z,95767
2023-03-16T10:22:47.320Z,95771.7
2023-03-16T10:23:49.929Z,95769.6
2023-03-16T10:24:52.461Z,95769.1
2023-03-16T10:25:54.736Z,95763.6
2023-03-16T10:26:57.544Z,95764.8
2023-03-16T10:27:59.778Z,95759
2023-03-16T10:29:02.396Z,95760.4
2023-03-16T10:30:04.919Z,95756.8
2023-03-16T10:31:06.855Z,95750.4
2023-03-16T10:32:09.301Z,95749.1
2023-03-16T10:33:12.427Z,95748.6
2023-03-16T10:34:14.757Z,95750.2
2023-03-16T10:35:17.374Z,95746.4
2023-03-16T10:36:20.050Z,95747.2
2023-03-16T10:37:22.631Z,95749.2
2023-03-16T10:38:25.166Z,95745.5
2023-03-16T10:39:29.237Z,95743.7
2023-03-16T10:40:32.813Z,95741.8
2023-03-16T10:41:35.341Z,95740
2023-03-16T10:42:37.887Z,95741
2023-03-16T10:43:40.418Z,95741.4
2023-03-16T10:44:42.377Z,95736
2023-03-16T10:45:45.309Z,95735.2
2023-03-16T10:46:48.378Z,95735.7
2023-03-16T10:47:51.385Z,95734.3
2023-03-16T10:48:53.945Z,95730.5
2023-03-16T10:49:56.243Z,95727.4
2023-03-16T10:50:58.838Z,95731.5
2023-03-16T10:52:01.492Z,95727.8
2023-03-16T10:53:04.073Z,95728.4
2023-03-16T10:54:06.353Z,95724.5
2023-03-16T10:55:08.890Z,95727.9
2023-03-16T10:56:11.378Z,95728.7
2023-03-16T10:57:13.909Z,95725
2023-03-16T10:58:16.420Z,95727.2
2023-03-16T10:59:18.348Z,95730.6
2023-03-16T11:00:20.778Z,95726.3
2023-03-16T11:01:23.518Z,95726.8
2023-03-16T11:02:26.119Z,95722.4
2023-03-16T11:03:28.655Z,95720.8
2023-03-16T11:04:31.177Z,95715.7
2023-03-16T11:05:33.300Z,95713.9
2023-03-16T11:06:35.534Z,95711.3
2023-03-16T11:07:37.898Z,95713.7
2023-03-16T11:08:40.445Z,95711.3
2023-03-16T11:09:42.728Z,95706.7
2023-03-16T11:11:50.218Z,95706.3
2023-03-16T11:12:52.508Z,95708.1
2023-03-16T11:13:55.010Z,95705.8
2023-03-16T11:14:57.537Z,95707.3
2023-03-16T11:16:00.046Z,95709.2
2023-03-16T11:17:02.545Z,95701
2023-03-16T11:18:05.175Z,95704.6
2023-03-16T11:19:07.414Z,95700.9
2023-03-16T11:20:09.481Z,95701.5
2023-03-16T11:21:12.023Z,95696.4
2023-03-16T11:22:14.283Z,95696.3
2023-03-16T11:23:16.852Z,95697.5
2023-03-16T11:24:19.390Z,95696.4
2023-03-16T11:25:21.892Z,95694
2023-03-16T11:26:24.384Z,95696.3
2023-03-16T11:27:26.933Z,95693.6
2023-03-16T11:28:29.154Z,95696.3
2023-03-16T11:29:31.366Z,95693.9
2023-03-16T11:30:33.599Z,95695
2023-03-16T11:31:35.897Z,95689.7
2023-03-16T11:32:38.473Z,95696.4
2023-03-16T11:33:41.114Z,95692.9
2023-03-16T11:34:43.062Z,95690.4
2023-03-16T11:36:50.300Z,95687.6
2023-03-16T11:37:52.573Z,95683.7
2023-03-16T11:38:57.772Z,95682.1
2023-03-16T11:40:00.369Z,95679.5
2023-03-16T11:41:02.897Z,95678.6
2023-03-16T11:42:04.860Z,95678.4
2023-03-16T11:43:07.166Z,95683.7
2023-03-16T11:44:09.652Z,95677.7
2023-03-16T11:45:12.167Z,95674.2
2023-03-16T11:46:14.728Z,95674.1
2023-03-16T11:47:17.477Z,95673.7
2023-03-16T11:48:19.159Z,95674.4
2023-03-16T11:49:21.698Z,95672.1
2023-03-16T11:50:23.936Z,95670.3
2023-03-16T11:51:26.154Z,95665.2
2023-03-16T11:52:28.383Z,95667.8
2023-03-16T11:53:30.620Z,95663.7
2023-03-16T11:54:33.200Z,95665.3
2023-03-16T11:55:35.731Z,95662.2
2023-03-16T11:56:38.236Z,95660.9
2023-03-16T11:57:40.740Z,95669.4
2023-03-16T11:58:42.698Z,95664
2023-03-16T12:00:49.916Z,95659.3
2023-03-16T12:02:57.883Z,95658.8
2023-03-16T12:04:00.769Z,95654.8
2023-03-16T12:05:03.033Z,95654.8
2023-03-16T12:07:10.294Z,95656.7
2023-03-16T12:08:12.842Z,95649.5
2023-03-16T12:09:15.341Z,95647.3
2023-03-16T12:10:17.934Z,95647
2023-03-16T12:11:20.517Z,95645.4
2023-03-16T12:12:22.731Z,95642.3
2023-03-16T12:13:25.246Z,95640.9
2023-03-16T12:14:27.761Z,95637.4
2023-03-16T12:15:32.194Z,95635.7
2023-03-16T12:17:39.856Z,95630.4
2023-03-16T12:18:42.098Z,95628.5
2023-03-16T12:19:44.638Z,95630.7
2023-03-16T12:20:46.870Z,95626.3
2023-03-16T12:21:49.411Z,95627
2023-03-16T12:22:51.644Z,95627.7
2023-03-16T12:23:54.018Z,95630.9
2023-03-16T12:24:56.550Z,95632.7
2023-03-16T12:25:59.214Z,95627.5
2023-03-16T12:27:01.774Z,95628
2023-03-16T12:28:04.296Z,95632.1
2023-03-16T12:29:06.802Z,95629.3
2023-03-16T12:30:09.019Z,95624.4
2023-03-16T12:31:11.750Z,95625.9
2023-03-16T12:32:14.430Z,95624.4
2023-03-16T12:33:16.919Z,95633.2
2023-03-16T12:34:19.430Z,95631.1
2023-03-16T12:35:21.987Z,95628.1
2023-03-16T12:36:24.250Z,95628.5
2023-03-16T12:37:26.798Z,95628.5
2023-03-16T12:38:29.307Z,95625
2023-03-16T12:39:31.568Z,95620.9
2023-03-16T12:40:34.095Z,95624
2023-03-16T12:41:36.697Z,95621.2
2023-03-16T12:42:39.287Z,95623.1
2023-03-16T12:43:41.963Z,95616.7
2023-03-16T12:44:44.308Z,95618.2
2023-03-16T12:45:46.435Z,95611.5
2023-03-16T12:46:49.263Z,95611.1
2023-03-16T12:47:51.193Z,95614.7
2023-03-16T12:48:53.702Z,95619.3
2023-03-16T12:49:55.959Z,95616.3
2023-03-16T12:50:58.541Z,95618.4
2023-03-16T12:52:00.499Z,95613.2
2023-03-16T12:53:03.025Z,95612.1
2023-03-16T12:54:05.245Z,95614
2023-03-16T12:55:07.244Z,95612.6
2023-03-16T12:56:09.787Z,95606.4
2023-03-16T12:57:12.114Z,95604.7